Time;durP1;ratioP1;P1;durP2;ratioP2;P2;SDS_P1;SDS_P2;PMS_P1;PMS_P2;Temp;Humidity;BMP_temperature;BMP_pressure;BME280_temperature;BME280_humidity;BME280_pressure;Samples;Min_cycle;Max_cycle;Signal;HPM_P1;HPM_P2
2023/04/08 00:01:17;;;;;;;31.67;15.13;;;;;;;4.28;100.00;101436.97;4909825;29;20048;-81
2023/04/08 00:03:44;;;;;;;27.80;14.07;;;;;;;4.39;100.00;101435.44;4916367;29;20078;-81
2023/04/08 00:06:11;;;;;;;26.57;14.20;;;;;;;4.30;100.00;101430.94;4910820;29;20044;-80
2023/04/08 00:08:38;;;;;;;35.13;16.10;;;;;;;4.37;100.00;101434.50;4912413;29;20135;-81
2023/04/08 00:11:05;;;;;;;29.70;14.93;;;;;;;4.30;100.00;101438.78;4938176;29;20055;-81
2023/04/08 00:13:32;;;;;;;30.70;14.90;;;;;;;4.39;100.00;101444.16;4907446;29;20143;-80
2023/04/08 00:15:59;;;;;;;30.17;15.17;;;;;;;4.37;100.00;101438.03;4940052;29;20560;-80
2023/04/08 00:18:26;;;;;;;26.57;14.57;;;;;;;4.30;100.00;101441.38;4915734;29;20058;-81
2023/04/08 00:20:52;;;;;;;29.37;15.10;;;;;;;4.42;100.00;101425.88;4945002;29;20047;-80
2023/04/08 00:23:20;;;;;;;35.30;16.17;;;;;;;4.51;100.00;101427.78;4927868;29;20049;-81
2023/04/08 00:25:47;;;;;;;35.07;15.57;;;;;;;4.49;100.00;101425.13;4942920;29;20040;-80
2023/04/08 00:28:14;;;;;;;31.57;14.30;;;;;;;4.46;100.00;101438.19;4909018;29;20048;-81
2023/04/08 00:30:42;;;;;;;31.80;15.00;;;;;;;4.34;100.00;101440.56;4916266;29;20054;-82
2023/04/08 00:33:09;;;;;;;31.93;15.50;;;;;;;4.38;100.00;101437.16;4943393;29;20043;-81
2023/04/08 00:35:36;;;;;;;31.37;14.87;;;;;;;4.42;100.00;101435.47;4911645;29;20077;-82
2023/04/08 00:38:03;;;;;;;35.30;16.73;;;;;;;4.41;100.00;101433.72;4905218;29;20039;-80
2023/04/08 00:40:32;;;;;;;32.60;15.33;;;;;;;4.56;100.00;101443.56;4925830;29;20134;-81
2023/04/08 00:43:00;;;;;;;31.03;15.20;;;;;;;4.47;100.00;101436.44;4904760;29;20050;-81
2023/04/08 00:45:26;;;;;;;33.27;15.47;;;;;;;4.48;100.00;101441.69;4913617;29;20047;-80
2023/04/08 00:47:53;;;;;;;31.17;16.10;;;;;;;4.48;100.00;101446.94;4925559;29;20048;-79
2023/04/08 00:50:23;;;;;;;36.30;16.83;;;;;;;4.37;100.00;101448.50;4927633;29;20059;-82
2023/04/08 00:52:51;;;;;;;26.83;14.77;;;;;;;4.34;100.00;101450.16;4933074;29;20478;-80
2023/04/08 00:55:18;;;;;;;34.77;15.63;;;;;;;4.43;100.00;101448.56;4926719;29;20052;-80
2023/04/08 00:57:47;;;;;;;38.73;18.53;;;;;;;4.34;100.00;101440.56;4940091;29;20050;-81
2023/04/08 01:00:15;;;;;;;30.00;15.70;;;;;;;4.24;100.00;101447.38;4939563;29;20050;-81
2023/04/08 01:03:04;;;;;;;32.97;17.67;;;;;;;4.31;100.00;101458.84;4909165;29;20035;-79
2023/04/08 01:05:48;;;;;;;34.77;16.90;;;;;;;4.49;100.00;101460.91;4953974;29;20044;-81
2023/04/08 01:08:15;;;;;;;33.20;16.10;;;;;;;4.47;100.00;101462.59;4955416;28;20036;-80
2023/04/08 01:10:44;;;;;;;36.33;17.33;;;;;;;4.47;100.00;101460.88;4932235;29;20051;-79
2023/04/08 01:13:13;;;;;;;38.00;18.80;;;;;;;4.53;100.00;101460.06;4925314;29;20044;-81
2023/04/08 01:15:41;;;;;;;31.37;14.50;;;;;;;4.43;100.00;101459.03;4907979;29;20039;-79
2023/04/08 01:18:11;;;;;;;37.83;16.27;;;;;;;4.35;100.00;101455.41;4922901;29;20055;-81
2023/04/08 01:20:41;;;;;;;38.87;17.07;;;;;;;4.52;100.00;101456.56;4916099;29;20051;-81
2023/04/08 01:23:17;;;;;;;34.70;16.37;;;;;;;4.47;100.00;101449.53;4934008;29;20059;-80
2023/04/08 01:25:48;;;;;;;32.07;15.73;;;;;;;4.46;100.00;101461.72;4945177;29;20528;-79
2023/04/08 01:28:17;;;;;;;35.53;15.70;;;;;;;4.49;100.00;101464.38;4922003;29;20075;-80
2023/04/08 01:30:46;;;;;;;30.63;14.77;;;;;;;4.41;100.00;101463.38;4925540;29;20040;-80
2023/04/08 01:33:14;;;;;;;30.90;15.70;;;;;;;4.40;100.00;101463.34;4940784;29;20040;-80
2023/04/08 01:35:41;;;;;;;34.53;15.60;;;;;;;4.33;100.00;101472.81;4931799;29;20044;-80
2023/04/08 01:38:10;;;;;;;31.03;15.77;;;;;;;4.32;100.00;101475.41;4923923;29;20063;-80
2023/04/08 01:40:38;;;;;;;31.27;16.67;;;;;;;4.44;100.00;101468.66;4938808;29;21034;-80
2023/04/08 01:43:07;;;;;;;38.27;16.93;;;;;;;4.33;100.00;101474.56;4932576;29;20067;-80
2023/04/08 01:45:33;;;;;;;36.07;16.33;;;;;;;4.35;100.00;101478.94;4920054;29;20039;-82
2023/04/08 01:48:01;;;;;;;32.30;14.83;;;;;;;4.49;100.00;101473.97;4904871;29;20800;-79
2023/04/08 01:50:28;;;;;;;34.13;16.13;;;;;;;4.45;100.00;101467.78;4918280;29;20116;-80
2023/04/08 01:52:58;;;;;;;31.63;15.07;;;;;;;4.46;100.00;101472.19;4916145;29;20111;-81
2023/04/08 01:55:25;;;;;;;28.00;13.87;;;;;;;4.40;100.00;101469.47;4919735;29;20054;-78
2023/04/08 01:57:53;;;;;;;24.93;13.23;;;;;;;4.37;100.00;101479.88;4936657;29;20398;-79
2023/04/08 02:00:22;;;;;;;33.53;13.90;;;;;;;4.41;100.00;101476.44;4928071;29;20032;-79
2023/04/08 02:02:49;;;;;;;29.60;15.17;;;;;;;4.41;100.00;101478.19;4943429;28;20055;-80
2023/04/08 02:05:17;;;;;;;28.10;14.33;;;;;;;4.37;100.00;101476.34;4903281;29;20050;-79
2023/04/08 02:07:45;;;;;;;25.83;11.83;;;;;;;4.31;100.00;101478.88;4942068;28;20051;-80
2023/04/08 02:10:12;;;;;;;27.60;14.77;;;;;;;4.36;100.00;101475.47;4925441;29;20046;-80
2023/04/08 02:12:39;;;;;;;31.73;14.40;;;;;;;4.39;100.00;101478.16;4902901;29;21505;-79
2023/04/08 02:15:06;;;;;;;27.03;13.87;;;;;;;4.38;100.00;101475.53;4936504;29;20485;-79
2023/04/08 02:17:37;;;;;;;27.47;13.53;;;;;;;4.36;100.00;101470.25;4898260;29;20058;-78
2023/04/08 02:20:15;;;;;;;33.80;15.17;;;;;;;4.42;100.00;101472.09;4916452;29;20048;-79
2023/04/08 02:22:51;;;;;;;28.13;15.00;;;;;;;4.29;100.00;101478.88;4941181;28;20036;-79
2023/04/08 02:25:22;;;;;;;25.80;13.73;;;;;;;4.42;100.00;101475.59;4929200;29;20047;-80
2023/04/08 02:27:49;;;;;;;30.57;14.30;;;;;;;4.48;100.00;101473.09;4940204;28;20064;-80
2023/04/08 02:30:17;;;;;;;25.07;13.13;;;;;;;4.31;100.00;101477.16;4918856;29;20212;-79
2023/04/08 02:32:45;;;;;;;24.33;12.93;;;;;;;4.37;100.00;101479.88;4895345;29;20044;-79
2023/04/08 02:35:13;;;;;;;22.97;13.03;;;;;;;4.35;100.00;101476.34;4914599;29;20054;-79
2023/04/08 02:37:40;;;;;;;25.07;13.13;;;;;;;4.42;100.00;101478.22;4927401;29;20462;-80
2023/04/08 02:40:30;;;;;;;28.83;14.13;;;;;;;4.37;100.00;101487.72;4912035;29;20039;-78
2023/04/08 02:42:57;;;;;;;26.83;13.57;;;;;;;4.40;100.00;101493.00;4911776;29;20126;-80
2023/04/08 02:45:30;;;;;;;26.10;13.23;;;;;;;4.47;100.00;101492.28;4952667;23;20111;-80
2023/04/08 02:48:01;;;;;;;27.90;12.77;;;;;;;4.38;100.00;101497.34;4943945;29;20101;-78
2023/04/08 02:50:28;;;;;;;26.87;13.47;;;;;;;4.45;100.00;101500.91;4930904;29;20074;-80
2023/04/08 02:52:54;;;;;;;23.00;13.23;;;;;;;4.34;100.00;101499.84;4923856;29;20040;-80
2023/04/08 02:55:21;;;;;;;24.20;13.17;;;;;;;4.38;100.00;101494.72;4938327;29;20032;-82
2023/04/08 02:57:48;;;;;;;22.83;11.90;;;;;;;4.43;100.00;101500.91;4909875;29;20625;-78
2023/04/08 03:00:15;;;;;;;25.27;13.23;;;;;;;4.39;100.00;101508.69;4918981;29;20111;-80
2023/04/08 03:02:42;;;;;;;23.40;12.47;;;;;;;4.42;100.00;101499.16;4924165;29;20044;-81
2023/04/08 03:05:09;;;;;;;26.67;13.20;;;;;;;4.43;100.00;101511.38;4932715;29;20043;-80
2023/04/08 03:07:36;;;;;;;26.63;12.47;;;;;;;4.43;100.00;101505.25;4916647;29;20039;-80
2023/04/08 03:10:03;;;;;;;26.07;12.53;;;;;;;4.47;100.00;101518.44;4917790;29;20050;-81
2023/04/08 03:12:30;;;;;;;26.43;12.10;;;;;;;4.28;100.00;101524.16;4936609;29;20048;-81
2023/04/08 03:14:56;;;;;;;20.37;11.50;;;;;;;4.25;100.00;101526.72;4898966;29;20091;-81
2023/04/08 03:17:23;;;;;;;24.63;13.30;;;;;;;4.34;100.00;101526.03;4924749;29;20039;-81
2023/04/08 03:19:50;;;;;;;23.27;13.30;;;;;;;4.40;100.00;101529.63;4895861;29;20079;-81
2023/04/08 03:22:16;;;;;;;22.67;12.63;;;;;;;4.47;100.00;101523.66;4926270;29;20031;-80
2023/04/08 03:24:43;;;;;;;26.37;13.30;;;;;;;4.42;100.00;101517.47;4908398;29;20039;-81
2023/04/08 03:27:11;;;;;;;27.27;12.60;;;;;;;4.29;100.00;101520.72;4909732;29;20032;-81
2023/04/08 03:29:38;;;;;;;23.60;12.97;;;;;;;4.28;100.00;101526.78;4923706;29;20037;-80
2023/04/08 03:32:05;;;;;;;23.63;12.57;;;;;;;4.40;100.00;101531.38;4924948;29;20048;-80
2023/04/08 03:34:33;;;;;;;25.23;13.23;;;;;;;4.30;100.00;101526.84;4921813;29;20053;-81
2023/04/08 03:37:00;;;;;;;26.00;12.87;;;;;;;4.39;100.00;101525.25;4926393;29;20039;-80
2023/04/08 03:39:27;;;;;;;25.33;13.00;;;;;;;4.28;100.00;101539.84;4894180;29;20112;-80
2023/04/08 03:41:54;;;;;;;27.73;14.20;;;;;;;4.28;100.00;101536.34;4923489;29;20044;-80
2023/04/08 03:44:20;;;;;;;26.60;14.13;;;;;;;4.26;100.00;101530.22;4928417;29;20130;-80
2023/04/08 03:46:50;;;;;;;29.50;15.13;;;;;;;4.21;100.00;101535.38;4911216;29;20062;-80
2023/04/08 03:49:17;;;;;;;25.73;12.93;;;;;;;4.19;100.00;101539.69;4904615;29;20074;-79
2023/04/08 03:51:43;;;;;;;28.43;15.10;;;;;;;4.24;100.00;101531.06;4907669;29;20118;-81
2023/04/08 03:54:10;;;;;;;30.50;14.70;;;;;;;4.35;100.00;101533.00;4920603;29;20047;-79
2023/04/08 03:56:39;;;;;;;30.40;14.33;;;;;;;4.36;100.00;101540.88;4901190;29;20103;-80
2023/04/08 03:59:06;;;;;;;27.47;14.03;;;;;;;4.28;100.00;101536.34;4928613;29;20044;-80
2023/04/08 04:01:33;;;;;;;24.50;13.33;;;;;;;4.33;100.00;101534.72;4933660;29;20048;-80
2023/04/08 04:03:59;;;;;;;25.57;14.40;;;;;;;4.29;100.00;101530.28;4934700;29;20060;-81
2023/04/08 04:06:27;;;;;;;28.67;13.83;;;;;;;4.32;100.00;101535.59;4914406;29;20055;-81
2023/04/08 04:08:56;;;;;;;42.37;14.17;;;;;;;4.32;100.00;101539.06;4896332;29;20048;-81
2023/04/08 04:11:23;;;;;;;26.13;14.63;;;;;;;4.34;100.00;101547.81;4897885;29;20047;-81
2023/04/08 04:13:50;;;;;;;32.57;14.03;;;;;;;4.34;100.00;101552.19;4913967;29;20072;-81
2023/04/08 04:16:16;;;;;;;28.20;14.47;;;;;;;4.32;100.00;101559.13;4906092;29;20062;-81
2023/04/08 04:18:43;;;;;;;25.83;14.33;;;;;;;4.21;100.00;101556.31;4914454;29;20078;-80
2023/04/08 04:21:10;;;;;;;30.07;15.13;;;;;;;4.33;100.00;101551.31;4921182;29;20058;-81
2023/04/08 04:23:37;;;;;;;26.80;14.60;;;;;;;4.27;100.00;101560.75;4906710;29;20040;-80
2023/04/08 04:26:08;;;;;;;31.50;15.30;;;;;;;4.36;100.00;101556.56;4922798;29;20043;-79
2023/04/08 04:28:35;;;;;;;35.67;14.73;;;;;;;4.43;100.00;101553.22;4920237;29;20055;-80
2023/04/08 04:31:02;;;;;;;28.60;13.27;;;;;;;4.32;100.00;101548.66;4911140;29;20128;-79
2023/04/08 04:33:30;;;;;;;26.80;13.90;;;;;;;4.24;100.00;101559.84;4934534;29;20039;-79
2023/04/08 04:35:57;;;;;;;27.77;14.53;;;;;;;4.24;100.00;101572.94;4951078;28;20385;-80
2023/04/08 04:38:24;;;;;;;30.57;14.37;;;;;;;4.33;100.00;101569.59;4915372;29;20043;-79
2023/04/08 04:40:50;;;;;;;24.77;13.90;;;;;;;4.39;100.00;101576.72;4942858;29;20512;-79
2023/04/08 04:43:17;;;;;;;30.77;13.73;;;;;;;4.24;100.00;101580.78;4910890;29;20064;-80
2023/04/08 04:45:44;;;;;;;26.57;13.97;;;;;;;4.35;100.00;101574.88;4940439;29;20048;-79
2023/04/08 04:48:11;;;;;;;28.77;14.33;;;;;;;4.30;100.00;101585.25;4922369;29;20056;-80
2023/04/08 04:50:37;;;;;;;28.13;13.63;;;;;;;4.37;100.00;101584.53;4928641;29;20054;-80
2023/04/08 04:53:04;;;;;;;27.43;13.27;;;;;;;4.41;100.00;101590.69;4924788;29;20107;-80
2023/04/08 04:55:31;;;;;;;28.23;13.47;;;;;;;4.39;100.00;101588.06;4930972;29;20472;-79
2023/04/08 04:57:58;;;;;;;29.43;13.50;;;;;;;4.39;100.00;101585.44;4911605;29;20493;-79
2023/04/08 05:00:24;;;;;;;29.33;14.00;;;;;;;4.36;100.00;101587.97;4920273;29;20044;-80
2023/04/08 05:02:51;;;;;;;28.23;13.77;;;;;;;4.35;100.00;101596.69;4898392;29;20426;-80
2023/04/08 05:05:19;;;;;;;30.07;14.77;;;;;;;4.42;100.00;101602.91;4912900;29;20044;-80
2023/04/08 05:07:46;;;;;;;30.70;16.30;;;;;;;4.41;100.00;101601.16;4897903;29;20426;-80
2023/04/08 05:10:12;;;;;;;30.17;14.93;;;;;;;4.47;100.00;101593.44;4907235;29;20054;-80
2023/04/08 05:12:40;;;;;;;26.73;13.23;;;;;;;4.38;100.00;101603.72;4924105;29;20264;-81
2023/04/08 05:15:07;;;;;;;31.33;15.00;;;;;;;4.37;100.00;101602.84;4928405;29;20040;-80
2023/04/08 05:17:33;;;;;;;30.37;15.20;;;;;;;4.40;100.00;101608.13;4916916;29;20048;-81
2023/04/08 05:20:01;;;;;;;30.87;13.97;;;;;;;4.45;100.00;101608.19;4913116;29;20054;-80
2023/04/08 05:22:28;;;;;;;33.43;15.13;;;;;;;4.40;100.00;101618.59;4926323;29;20043;-79
2023/04/08 05:24:54;;;;;;;28.80;14.70;;;;;;;4.45;100.00;101606.47;4897114;29;20050;-81
2023/04/08 05:27:21;;;;;;;30.47;14.47;;;;;;;4.40;100.00;101609.88;4893907;29;20046;-80
2023/04/08 05:29:48;;;;;;;29.00;13.77;;;;;;;4.29;100.00;101612.28;4914237;29;20048;-80
2023/04/08 05:32:15;;;;;;;34.90;15.23;;;;;;;4.39;100.00;101622.06;4928453;29;20047;-82
2023/04/08 05:34:42;;;;;;;27.83;14.23;;;;;;;4.29;100.00;101627.97;4910691;29;20044;-81
2023/04/08 05:37:09;;;;;;;32.50;14.43;;;;;;;4.44;100.00;101620.41;4898187;29;20060;-81
2023/04/08 05:39:36;;;;;;;30.17;15.60;;;;;;;4.42;100.00;101623.84;4920773;29;20044;-81
2023/04/08 05:42:03;;;;;;;30.87;14.60;;;;;;;4.33;100.00;101621.06;4941721;29;20051;-80
2023/04/08 05:44:30;;;;;;;32.47;14.80;;;;;;;4.43;100.00;101628.22;4925999;29;20067;-80
2023/04/08 05:46:57;;;;;;;36.93;15.73;;;;;;;4.31;100.00;101623.63;4911441;29;20054;-81
2023/04/08 05:49:23;;;;;;;33.67;14.87;;;;;;;4.29;100.00;101637.50;4911597;29;20048;-80
2023/04/08 05:51:50;;;;;;;33.03;14.93;;;;;;;4.43;100.00;101630.84;4903093;29;20528;-78
2023/04/08 05:54:17;;;;;;;34.50;16.37;;;;;;;4.37;100.00;101630.72;4931535;29;20055;-81
2023/04/08 05:56:45;;;;;;;30.43;13.57;;;;;;;4.34;100.00;101642.00;4913393;29;20048;-80
2023/04/08 05:59:11;;;;;;;33.23;15.33;;;;;;;4.45;100.00;101640.47;4905214;29;20070;-80
2023/04/08 06:01:38;;;;;;;29.27;15.43;;;;;;;4.51;100.00;101643.22;4910673;29;20044;-80
2023/04/08 06:04:05;;;;;;;27.10;14.60;;;;;;;4.50;100.00;101641.47;4911360;29;20506;-81
2023/04/08 06:06:32;;;;;;;45.17;21.57;;;;;;;4.62;100.00;101642.53;4910719;29;20058;-81
2023/04/08 06:08:59;;;;;;;25.10;12.70;;;;;;;4.66;100.00;101647.00;4929012;29;20106;-81
2023/04/08 06:11:26;;;;;;;29.53;15.87;;;;;;;4.60;100.00;101646.88;4896543;29;20139;-82
2023/04/08 06:13:53;;;;;;;24.37;12.30;;;;;;;4.66;100.00;101653.13;4907317;29;20043;-81
2023/04/08 06:16:20;;;;;;;28.40;13.13;;;;;;;4.64;100.00;101656.56;4924453;29;20039;-81
2023/04/08 06:18:47;;;;;;;27.57;13.33;;;;;;;4.69;100.00;101657.53;4897532;29;20044;-81
2023/04/08 06:21:14;;;;;;;24.27;11.20;;;;;;;4.58;100.00;101656.44;4908877;29;20046;-81
2023/04/08 06:23:41;;;;;;;21.43;10.90;;;;;;;4.60;100.00;101659.97;4899288;29;20858;-81
2023/04/08 06:26:08;;;;;;;23.00;12.20;;;;;;;4.77;100.00;101674.25;4925889;29;20039;-81
2023/04/08 06:28:35;;;;;;;23.80;12.03;;;;;;;4.77;100.00;101669.91;4927954;29;20071;-82
2023/04/08 06:31:01;;;;;;;24.27;10.70;;;;;;;4.83;100.00;101677.00;4906545;29;20734;-80
2023/04/08 06:33:28;;;;;;;22.73;11.60;;;;;;;4.77;100.00;101674.25;4893003;29;20071;-82
2023/04/08 06:36:06;;;;;;;21.10;10.73;;;;;;;4.91;100.00;101683.28;4892763;29;20075;-80
2023/04/08 06:38:33;;;;;;;23.33;10.57;;;;;;;4.93;100.00;101681.56;4897475;29;20071;-79
2023/04/08 06:41:07;;;;;;;23.13;11.50;;;;;;;4.99;100.00;101688.66;4900403;29;20047;-79
2023/04/08 06:43:35;;;;;;;22.20;10.77;;;;;;;5.02;100.00;101686.97;4917082;29;20091;-79
2023/04/08 06:46:02;;;;;;;21.77;9.77;;;;;;;4.90;100.00;101691.09;4915691;29;20047;-79
2023/04/08 06:48:29;;;;;;;24.60;11.63;;;;;;;4.99;100.00;101681.69;4905984;29;20124;-82
2023/04/08 06:50:57;;;;;;;22.80;10.20;;;;;;;5.01;100.00;101690.44;4906417;29;20699;-81
2023/04/08 06:53:25;;;;;;;20.80;11.27;;;;;;;4.97;100.00;101695.63;4923118;29;20036;-81
2023/04/08 06:55:52;;;;;;;27.00;13.77;;;;;;;5.16;100.00;101692.47;4909182;29;20505;-82
2023/04/08 06:58:22;;;;;;;23.63;12.80;;;;;;;5.22;100.00;101691.72;4928774;29;20035;-81
2023/04/08 07:00:48;;;;;;;27.33;12.07;;;;;;;5.16;100.00;101702.94;4911174;29;20039;-81
2023/04/08 07:03:15;;;;;;;23.13;11.53;;;;;;;5.14;100.00;101706.41;4922838;29;20134;-82
2023/04/08 07:05:46;;;;;;;24.37;11.40;;;;;;;5.16;100.00;101708.19;4923433;29;20417;-81
2023/04/08 07:08:13;;;;;;;23.33;11.50;;;;;;;5.05;100.00;101709.75;4943742;29;20040;-80
2023/04/08 07:10:40;;;;;;;25.53;12.40;;;;;;;4.97;100.00;101712.19;4927464;29;20054;-82
2023/04/08 07:13:07;;;;;;;28.20;13.50;;;;;;;5.12;100.00;101716.81;4898501;29;20050;-82
2023/04/08 07:15:34;;;;;;;27.67;13.37;;;;;;;5.17;100.00;101719.53;4902649;29;20051;-81
2023/04/08 07:18:01;;;;;;;24.47;12.63;;;;;;;5.22;100.00;101721.41;4913854;29;20039;-79
2023/04/08 07:20:28;;;;;;;29.37;13.87;;;;;;;5.28;100.00;101723.22;4917154;29;20036;-81
2023/04/08 07:22:57;;;;;;;31.07;14.37;;;;;;;5.34;100.00;101724.22;4925232;29;20162;-80
2023/04/08 07:25:24;;;;;;;28.13;12.77;;;;;;;5.28;100.00;101741.56;4893150;29;20430;-79
2023/04/08 07:27:51;;;;;;;28.33;12.90;;;;;;;5.17;100.00;101741.38;4912263;29;20052;-82
2023/04/08 07:30:18;;;;;;;27.80;13.10;;;;;;;5.25;100.00;101736.28;4926286;29;20067;-80
2023/04/08 07:32:45;;;;;;;29.00;13.10;;;;;;;5.39;100.00;101740.06;4922624;29;20039;-80
2023/04/08 07:35:12;;;;;;;28.57;13.20;;;;;;;5.38;100.00;101738.25;4914040;29;20186;-81
2023/04/08 07:37:39;;;;;;;29.37;14.33;;;;;;;5.43;100.00;101740.97;4918504;29;20060;-81
2023/04/08 07:40:07;;;;;;;29.17;12.63;;;;;;;5.35;100.00;101739.09;4932878;29;20402;-81
2023/04/08 07:42:34;;;;;;;27.97;13.97;;;;;;;5.20;100.00;101743.16;4922141;29;20047;-82
2023/04/08 07:45:02;;;;;;;31.27;18.23;;;;;;;5.37;100.00;101741.75;4905419;29;20043;-82
2023/04/08 07:47:29;;;;;;;30.33;15.40;;;;;;;5.47;100.00;101755.91;4929730;29;20092;-80
2023/04/08 07:49:55;;;;;;;35.03;15.63;;;;;;;5.57;100.00;101750.84;4913917;29;20043;-81
2023/04/08 07:52:22;;;;;;;31.33;13.47;;;;;;;5.50;100.00;101753.34;4914600;29;20256;-81
2023/04/08 07:54:49;;;;;;;30.60;15.70;;;;;;;5.48;100.00;101755.06;4903010;29;20047;-81
2023/04/08 07:57:16;;;;;;;28.53;13.47;;;;;;;5.56;100.00;101751.72;4902459;29;20063;-80
2023/04/08 07:59:43;;;;;;;30.73;15.00;;;;;;;5.56;100.00;101749.09;4903427;29;20106;-80
2023/04/08 08:02:10;;;;;;;30.93;14.90;;;;;;;5.60;100.00;101745.66;4932046;29;20051;-80
2023/04/08 08:04:37;;;;;;;40.97;17.67;;;;;;;5.68;100.00;101763.25;4923682;29;20091;-81
2023/04/08 08:07:04;;;;;;;38.03;16.57;;;;;;;5.62;100.00;101775.38;4924927;29;20411;-80
2023/04/08 08:09:31;;;;;;;34.37;16.07;;;;;;;5.48;100.00;101766.44;4924530;29;20711;-80
2023/04/08 08:11:58;;;;;;;36.73;16.17;;;;;;;5.54;100.00;101765.63;4908592;29;20066;-80
2023/04/08 08:14:25;;;;;;;36.80;16.33;;;;;;;5.60;100.00;101760.50;4923001;29;20063;-80
2023/04/08 08:16:53;;;;;;;34.13;15.77;;;;;;;5.77;100.00;101769.53;4933127;29;20068;-80
2023/04/08 08:19:20;;;;;;;32.23;15.77;;;;;;;5.96;100.00;101775.13;4920205;29;20044;-81
2023/04/08 08:21:47;;;;;;;40.27;17.20;;;;;;;5.99;100.00;101762.94;4905544;29;20070;-80
2023/04/08 08:24:13;;;;;;;35.10;16.60;;;;;;;6.02;100.00;101760.38;4932727;29;20044;-80
2023/04/08 08:26:40;;;;;;;40.70;17.47;;;;;;;5.99;100.00;101770.81;4921075;29;20040;-81
2023/04/08 08:29:07;;;;;;;34.97;16.67;;;;;;;5.91;100.00;101772.44;4934899;29;20032;-81
2023/04/08 08:31:34;;;;;;;34.47;15.97;;;;;;;5.88;100.00;101777.56;4931973;29;20072;-82
2023/04/08 08:34:01;;;;;;;32.23;16.67;;;;;;;5.84;100.00;101771.41;4909393;29;20055;-82
2023/04/08 08:36:28;;;;;;;36.40;17.97;;;;;;;6.01;100.00;101774.34;4900733;29;20460;-82
2023/04/08 08:38:55;;;;;;;33.50;16.13;;;;;;;6.07;100.00;101773.56;4901337;29;20054;-80
2023/04/08 08:41:22;;;;;;;37.73;16.90;;;;;;;6.01;100.00;101773.47;4903546;29;20048;-81
2023/04/08 08:43:49;;;;;;;34.47;16.27;;;;;;;6.11;100.00;101778.88;4916803;29;20042;-81
2023/04/08 08:46:17;;;;;;;34.63;17.33;;;;;;;6.05;100.00;101775.25;4919916;29;20753;-82
2023/04/08 08:48:45;;;;;;;35.47;16.63;;;;;;;6.10;100.00;101781.47;4933087;29;20044;-82
2023/04/08 08:51:12;;;;;;;36.83;17.43;;;;;;;6.19;100.00;101779.00;4916472;29;20039;-81
2023/04/08 08:53:43;;;;;;;35.43;17.80;;;;;;;6.28;100.00;101784.38;4914197;29;20054;-81
2023/04/08 08:56:11;;;;;;;34.97;16.87;;;;;;;6.24;100.00;101777.34;4931490;29;20044;-82
2023/04/08 08:58:40;;;;;;;33.10;16.90;;;;;;;6.23;100.00;101775.56;4917657;29;20051;-82
2023/04/08 09:01:30;;;;;;;40.13;18.07;;;;;;;6.40;100.00;101788.94;4915912;29;20130;-81
2023/04/08 09:04:15;;;;;;;37.87;17.30;;;;;;;6.49;100.00;101789.94;4940967;28;20035;-83
2023/04/08 09:06:44;;;;;;;40.00;17.80;;;;;;;6.54;100.00;101774.25;4917260;29;20087;-82
2023/04/08 09:09:11;;;;;;;35.43;16.60;;;;;;;6.54;100.00;101795.25;4929816;29;20044;-82
2023/04/08 09:11:39;;;;;;;38.80;17.93;;;;;;;6.34;100.00;101789.72;4908862;29;20048;-80
2023/04/08 09:14:23;;;;;;;36.20;16.77;;;;;;;6.53;100.00;101797.88;4896657;29;20036;-81
2023/04/08 09:16:51;;;;;;;37.55;17.52;;;;;;;6.68;100.00;101798.97;4917214;29;20051;-83
2023/04/08 09:19:18;;;;;;;31.77;16.90;;;;;;;6.68;100.00;101796.34;4919388;29;20130;-82
2023/04/08 09:21:44;;;;;;;36.63;16.57;;;;;;;6.62;100.00;101809.38;4932592;29;20047;-83
2023/04/08 09:24:27;;;;;;;37.63;17.13;;;;;;;6.57;100.00;101807.56;4905740;29;20040;-83
2023/04/08 09:26:55;;;;;;;32.80;16.43;;;;;;;6.70;100.00;101815.63;4915159;29;20107;-82
2023/04/08 09:29:25;;;;;;;31.60;16.77;;;;;;;6.69;100.00;101819.09;4902123;29;20040;-83
2023/04/08 09:31:55;;;;;;;36.20;16.40;;;;;;;6.66;100.00;101826.06;4919824;29;20143;-82
2023/04/08 09:34:22;;;;;;;33.33;16.37;;;;;;;6.85;100.00;101821.94;4900217;29;20441;-83
2023/04/08 09:36:50;;;;;;;32.50;16.40;;;;;;;6.94;100.00;101827.31;4913053;29;20514;-82
2023/04/08 09:39:17;;;;;;;37.53;16.77;;;;;;;7.06;100.00;101811.69;4932976;29;21019;-82
2023/04/08 09:41:47;;;;;;;35.13;17.07;;;;;;;6.97;100.00;101816.84;4902889;29;20055;-82
2023/04/08 09:44:17;;;;;;;29.03;15.73;;;;;;;6.95;100.00;101822.06;4910456;29;20060;-83
2023/04/08 09:46:48;;;;;;;38.77;18.23;;;;;;;6.90;100.00;101823.78;4920679;29;20046;-81
2023/04/08 09:49:37;;;;;;;34.37;17.53;;;;;;;7.15;100.00;101830.22;4914653;29;20066;-82
2023/04/08 09:52:14;;;;;;;38.17;18.07;;;;;;;7.17;100.00;101831.13;4946112;28;20071;-82
2023/04/08 09:54:50;;;;;;;37.00;19.13;;;;;;;7.21;100.00;101832.91;4932725;29;20040;-80
2023/04/08 09:57:27;;;;;;;33.90;17.77;;;;;;;7.18;100.00;101827.63;4931330;29;20180;-81
2023/04/08 10:00:04;;;;;;;34.30;16.73;;;;;;;7.23;100.00;101825.94;4920547;29;20055;-81
2023/04/08 10:02:35;;;;;;;29.73;15.87;;;;;;;7.28;100.00;101832.13;4933576;29;20485;-82
2023/04/08 10:05:02;;;;;;;38.60;18.40;;;;;;;7.43;100.00;101825.28;4929137;29;20074;-82
2023/04/08 10:07:31;;;;;;;34.07;16.67;;;;;;;7.43;100.00;101820.91;4911145;29;21730;-81
2023/04/08 10:09:58;;;;;;;32.67;17.07;;;;;;;7.23;100.00;101823.31;4914264;29;20039;-81
2023/04/08 10:12:25;;;;;;;32.07;17.63;;;;;;;7.36;100.00;101823.44;4926482;29;20062;-82
2023/04/08 10:15:22;;;;;;;35.70;17.20;;;;;;;7.67;100.00;101833.44;4897134;29;20154;-81
2023/04/08 10:17:50;;;;;;;31.53;17.10;;;;;;;7.72;100.00;101829.09;4911210;29;20087;-82
2023/04/08 10:20:35;;;;;;;36.37;18.33;;;;;;;7.82;100.00;101833.59;4910469;29;20093;-82
2023/04/08 10:23:03;;;;;;;32.33;17.33;;;;;;;7.67;100.00;101838.69;4920637;29;20048;-83
2023/04/08 10:25:31;;;;;;;30.53;16.30;;;;;;;7.77;100.00;101835.28;4898511;29;20507;-82
2023/04/08 10:28:10;;;;;;;51.07;26.23;;;;;;;7.94;100.00;101834.56;4897924;29;20044;-83
2023/04/08 10:30:37;;;;;;;47.70;26.53;;;;;;;7.82;100.00;101838.84;4939763;28;20505;-81
2023/04/08 10:33:09;;;;;;;39.57;23.00;;;;;;;7.86;100.00;101843.25;4925944;29;20592;-81
2023/04/08 10:36:03;;;;;;;32.13;18.43;;;;;;;8.04;100.00;101834.66;4906920;29;20099;-83
2023/04/08 10:38:30;;;;;;;33.93;21.00;;;;;;;7.92;100.00;101837.19;4906389;29;20051;-82
2023/04/08 10:41:01;;;;;;;34.13;18.67;;;;;;;7.91;100.00;101840.69;4910171;29;20058;-82
2023/04/08 10:43:32;;;;;;;35.27;18.07;;;;;;;7.77;100.00;101844.94;4907468;29;20063;-81
2023/04/08 10:45:59;;;;;;;33.80;17.83;;;;;;;7.88;100.00;101844.16;4891580;29;20039;-82
2023/04/08 10:48:28;;;;;;;33.67;17.70;;;;;;;7.95;100.00;101844.22;4910977;29;20074;-81
2023/04/08 10:50:59;;;;;;;32.70;19.03;;;;;;;7.95;100.00;101852.13;4907078;29;20044;-82
2023/04/08 10:53:34;;;;;;;33.77;18.27;;;;;;;7.80;100.00;101847.56;4892497;29;20051;-82
2023/04/08 10:56:16;;;;;;;34.67;17.80;;;;;;;7.68;100.00;101847.47;4908658;29;20049;-81
2023/04/08 10:58:57;;;;;;;32.50;17.10;;;;;;;7.80;100.00;101845.81;4910540;29;20472;-82
2023/04/08 11:01:28;;;;;;;35.30;18.67;;;;;;;7.98;100.00;101844.22;4908647;29;20126;-81
2023/04/08 11:03:57;;;;;;;31.50;16.70;;;;;;;7.73;100.00;101844.00;4905005;29;20043;-82
2023/04/08 11:06:27;;;;;;;29.53;16.53;;;;;;;7.96;100.00;101844.22;4902212;29;20043;-82
2023/04/08 11:08:58;;;;;;;32.93;16.27;;;;;;;8.08;100.00;101841.72;4910529;29;20440;-81
2023/04/08 11:11:28;;;;;;;34.53;17.30;;;;;;;8.09;100.00;101848.75;4904414;29;20066;-82
2023/04/08 11:13:56;;;;;;;34.60;19.30;;;;;;;8.13;100.00;101842.63;4905669;29;20059;-80
2023/04/08 11:16:23;;;;;;;33.13;17.37;;;;;;;8.06;100.00;101853.09;4931396;29;20147;-80